sensor_id;sensor_type;location;lat;lon;timestamp;P1;durP1;ratioP1;P2;durP2;ratioP2
18997;SDS011;9632;51.018;4.284;2023-05-07T00:02:21;7.45;;;3.30;;
18997;SDS011;9632;51.018;4.284;2023-05-07T00:04:47;7.32;;;2.92;;
18997;SDS011;9632;51.018;4.284;2023-05-07T00:07:14;7.68;;;3.50;;
18997;SDS011;9632;51.018;4.284;2023-05-07T00:09:40;5.93;;;3.17;;
18997;SDS011;9632;51.018;4.284;2023-05-07T00:12:06;7.70;;;3.25;;
18997;SDS011;9632;51.018;4.284;2023-05-07T00:14:32;9.05;;;3.60;;
18997;SDS011;9632;51.018;4.284;2023-05-07T00:16:57;7.88;;;3.15;;
18997;SDS011;9632;51.018;4.284;2023-05-07T00:19:23;8.80;;;3.53;;
18997;SDS011;9632;51.018;4.284;2023-05-07T00:21:49;6.85;;;3.50;;
18997;SDS011;9632;51.018;4.284;2023-05-07T00:24:14;8.02;;;3.08;;
18997;SDS011;9632;51.018;4.284;2023-05-07T00:26:40;6.28;;;2.97;;
18997;SDS011;9632;51.018;4.284;2023-05-07T00:29:06;7.80;;;3.25;;
18997;SDS011;9632;51.018;4.284;2023-05-07T00:31:31;7.55;;;3.10;;
18997;SDS011;9632;51.018;4.284;2023-05-07T00:33:57;8.38;;;3.20;;
18997;SDS011;9632;51.018;4.284;2023-05-07T00:36:23;6.25;;;3.10;;
18997;SDS011;9632;51.018;4.284;2023-05-07T00:38:48;7.53;;;3.50;;
18997;SDS011;9632;51.018;4.284;2023-05-07T00:41:14;6.28;;;3.58;;
18997;SDS011;9632;51.018;4.284;2023-05-07T00:43:40;7.97;;;3.35;;
18997;SDS011;9632;51.018;4.284;2023-05-07T00:46:06;7.15;;;3.08;;
18997;SDS011;9632;51.018;4.284;2023-05-07T00:48:31;6.53;;;3.10;;
18997;SDS011;9632;51.018;4.284;2023-05-07T00:50:57;6.90;;;3.25;;
18997;SDS011;9632;51.018;4.284;2023-05-07T00:53:23;4.35;;;2.65;;
18997;SDS011;9632;51.018;4.284;2023-05-07T00:55:49;5.88;;;2.90;;
18997;SDS011;9632;51.018;4.284;2023-05-07T00:58:15;6.18;;;2.97;;
18997;SDS011;9632;51.018;4.284;2023-05-07T01:00:41;5.47;;;3.00;;
18997;SDS011;9632;51.018;4.284;2023-05-07T01:03:07;7.28;;;3.08;;
18997;SDS011;9632;51.018;4.284;2023-05-07T01:05:32;5.88;;;2.90;;
18997;SDS011;9632;51.018;4.284;2023-05-07T01:07:58;6.38;;;3.22;;
18997;SDS011;9632;51.018;4.284;2023-05-07T01:10:25;6.60;;;3.03;;
18997;SDS011;9632;51.018;4.284;2023-05-07T01:12:51;5.82;;;3.25;;
18997;SDS011;9632;51.018;4.284;2023-05-07T01:15:18;7.30;;;3.22;;
18997;SDS011;9632;51.018;4.284;2023-05-07T01:17:44;4.88;;;3.00;;
18997;SDS011;9632;51.018;4.284;2023-05-07T01:20:10;8.07;;;3.35;;
18997;SDS011;9632;51.018;4.284;2023-05-07T01:22:37;6.78;;;3.45;;
18997;SDS011;9632;51.018;4.284;2023-05-07T01:25:04;5.25;;;3.05;;
18997;SDS011;9632;51.018;4.284;2023-05-07T01:27:30;5.82;;;3.17;;
18997;SDS011;9632;51.018;4.284;2023-05-07T01:29:58;5.40;;;3.30;;
18997;SDS011;9632;51.018;4.284;2023-05-07T01:32:35;6.03;;;3.20;;
18997;SDS011;9632;51.018;4.284;2023-05-07T01:35:15;6.85;;;3.10;;
18997;SDS011;9632;51.018;4.284;2023-05-07T01:37:44;4.65;;;3.40;;
18997;SDS011;9632;51.018;4.284;2023-05-07T01:40:12;5.88;;;3.67;;
18997;SDS011;9632;51.018;4.284;2023-05-07T01:42:38;5.15;;;3.17;;
18997;SDS011;9632;51.018;4.284;2023-05-07T01:45:05;6.18;;;3.53;;
18997;SDS011;9632;51.018;4.284;2023-05-07T01:47:31;7.45;;;3.60;;
18997;SDS011;9632;51.018;4.284;2023-05-07T01:49:58;7.50;;;3.60;;
18997;SDS011;9632;51.018;4.284;2023-05-07T01:52:24;6.78;;;3.60;;
18997;SDS011;9632;51.018;4.284;2023-05-07T01:54:50;6.05;;;3.38;;
18997;SDS011;9632;51.018;4.284;2023-05-07T01:57:15;7.10;;;3.67;;
18997;SDS011;9632;51.018;4.284;2023-05-07T01:59:41;6.47;;;3.80;;
18997;SDS011;9632;51.018;4.284;2023-05-07T02:02:07;5.82;;;3.55;;
18997;SDS011;9632;51.018;4.284;2023-05-07T02:04:32;4.78;;;3.40;;
18997;SDS011;9632;51.018;4.284;2023-05-07T02:06:58;7.18;;;3.63;;
18997;SDS011;9632;51.018;4.284;2023-05-07T02:09:23;5.85;;;3.58;;
18997;SDS011;9632;51.018;4.284;2023-05-07T02:11:49;7.80;;;3.83;;
18997;SDS011;9632;51.018;4.284;2023-05-07T02:14:15;8.20;;;3.85;;
18997;SDS011;9632;51.018;4.284;2023-05-07T02:16:41;8.52;;;3.95;;
18997;SDS011;9632;51.018;4.284;2023-05-07T02:19:06;7.15;;;4.22;;
18997;SDS011;9632;51.018;4.284;2023-05-07T02:21:32;8.52;;;4.50;;
18997;SDS011;9632;51.018;4.284;2023-05-07T02:23:58;6.70;;;4.28;;
18997;SDS011;9632;51.018;4.284;2023-05-07T02:26:23;8.13;;;4.00;;
18997;SDS011;9632;51.018;4.284;2023-05-07T02:28:49;8.93;;;4.00;;
18997;SDS011;9632;51.018;4.284;2023-05-07T02:31:15;8.73;;;4.70;;
18997;SDS011;9632;51.018;4.284;2023-05-07T02:33:41;9.10;;;4.10;;
18997;SDS011;9632;51.018;4.284;2023-05-07T02:36:07;8.88;;;4.20;;
18997;SDS011;9632;51.018;4.284;2023-05-07T02:38:34;6.93;;;3.92;;
18997;SDS011;9632;51.018;4.284;2023-05-07T02:41:00;8.32;;;3.55;;
18997;SDS011;9632;51.018;4.284;2023-05-07T02:43:26;5.35;;;3.55;;
18997;SDS011;9632;51.018;4.284;2023-05-07T02:46:07;8.18;;;4.25;;
18997;SDS011;9632;51.018;4.284;2023-05-07T02:48:34;7.63;;;3.63;;
18997;SDS011;9632;51.018;4.284;2023-05-07T02:51:00;9.98;;;4.60;;
18997;SDS011;9632;51.018;4.284;2023-05-07T02:53:26;7.45;;;4.38;;
18997;SDS011;9632;51.018;4.284;2023-05-07T02:55:55;8.75;;;4.45;;
18997;SDS011;9632;51.018;4.284;2023-05-07T02:58:22;7.05;;;4.20;;
18997;SDS011;9632;51.018;4.284;2023-05-07T03:00:47;7.72;;;4.32;;
18997;SDS011;9632;51.018;4.284;2023-05-07T03:03:13;7.88;;;4.50;;
18997;SDS011;9632;51.018;4.284;2023-05-07T03:05:39;7.35;;;4.45;;
18997;SDS011;9632;51.018;4.284;2023-05-07T03:08:05;7.03;;;4.05;;
18997;SDS011;9632;51.018;4.284;2023-05-07T03:10:31;8.18;;;4.22;;
18997;SDS011;9632;51.018;4.284;2023-05-07T03:12:56;8.20;;;4.38;;
18997;SDS011;9632;51.018;4.284;2023-05-07T03:15:22;7.22;;;4.30;;
18997;SDS011;9632;51.018;4.284;2023-05-07T03:17:48;8.13;;;4.25;;
18997;SDS011;9632;51.018;4.284;2023-05-07T03:20:14;6.05;;;4.32;;
18997;SDS011;9632;51.018;4.284;2023-05-07T03:22:39;7.72;;;4.40;;
18997;SDS011;9632;51.018;4.284;2023-05-07T03:25:06;6.78;;;4.55;;
18997;SDS011;9632;51.018;4.284;2023-05-07T03:27:32;8.27;;;4.40;;
18997;SDS011;9632;51.018;4.284;2023-05-07T03:29:58;8.18;;;4.63;;
18997;SDS011;9632;51.018;4.284;2023-05-07T03:32:23;8.75;;;4.72;;
18997;SDS011;9632;51.018;4.284;2023-05-07T03:34:49;8.07;;;5.00;;
18997;SDS011;9632;51.018;4.284;2023-05-07T03:37:15;8.00;;;4.68;;
18997;SDS011;9632;51.018;4.284;2023-05-07T03:39:40;7.68;;;4.75;;
18997;SDS011;9632;51.018;4.284;2023-05-07T03:42:06;8.80;;;4.80;;
18997;SDS011;9632;51.018;4.284;2023-05-07T03:44:32;7.63;;;4.53;;
18997;SDS011;9632;51.018;4.284;2023-05-07T03:46:57;7.30;;;4.32;;
18997;SDS011;9632;51.018;4.284;2023-05-07T03:49:23;8.75;;;4.93;;
18997;SDS011;9632;51.018;4.284;2023-05-07T03:51:49;8.90;;;5.47;;
18997;SDS011;9632;51.018;4.284;2023-05-07T03:54:14;9.23;;;5.47;;
18997;SDS011;9632;51.018;4.284;2023-05-07T03:56:40;10.73;;;5.25;;
18997;SDS011;9632;51.018;4.284;2023-05-07T03:59:06;9.73;;;5.57;;
18997;SDS011;9632;51.018;4.284;2023-05-07T04:01:31;8.00;;;4.88;;
18997;SDS011;9632;51.018;4.284;2023-05-07T04:03:57;7.35;;;4.80;;
18997;SDS011;9632;51.018;4.284;2023-05-07T04:06:22;9.85;;;5.43;;
18997;SDS011;9632;51.018;4.284;2023-05-07T04:08:49;9.30;;;5.10;;
18997;SDS011;9632;51.018;4.284;2023-05-07T04:11:14;8.15;;;5.35;;
18997;SDS011;9632;51.018;4.284;2023-05-07T04:13:40;9.00;;;5.45;;
18997;SDS011;9632;51.018;4.284;2023-05-07T04:16:06;7.60;;;5.40;;
18997;SDS011;9632;51.018;4.284;2023-05-07T04:18:33;9.25;;;5.13;;
18997;SDS011;9632;51.018;4.284;2023-05-07T04:20:58;10.18;;;4.90;;
18997;SDS011;9632;51.018;4.284;2023-05-07T04:23:24;7.18;;;4.70;;
18997;SDS011;9632;51.018;4.284;2023-05-07T04:25:50;9.68;;;5.70;;
18997;SDS011;9632;51.018;4.284;2023-05-07T04:28:16;8.88;;;5.50;;
18997;SDS011;9632;51.018;4.284;2023-05-07T04:30:41;8.85;;;5.45;;
18997;SDS011;9632;51.018;4.284;2023-05-07T04:33:07;9.32;;;5.60;;
18997;SDS011;9632;51.018;4.284;2023-05-07T04:35:33;10.15;;;6.13;;
18997;SDS011;9632;51.018;4.284;2023-05-07T04:37:59;8.55;;;5.53;;
18997;SDS011;9632;51.018;4.284;2023-05-07T04:40:25;9.77;;;6.35;;
18997;SDS011;9632;51.018;4.284;2023-05-07T04:42:51;8.52;;;5.78;;
18997;SDS011;9632;51.018;4.284;2023-05-07T04:45:18;9.07;;;5.70;;
18997;SDS011;9632;51.018;4.284;2023-05-07T04:47:43;9.98;;;5.65;;
18997;SDS011;9632;51.018;4.284;2023-05-07T04:50:09;10.65;;;5.85;;
18997;SDS011;9632;51.018;4.284;2023-05-07T04:52:35;11.98;;;6.25;;
18997;SDS011;9632;51.018;4.284;2023-05-07T04:55:01;10.43;;;6.07;;
18997;SDS011;9632;51.018;4.284;2023-05-07T04:57:27;10.68;;;5.82;;
18997;SDS011;9632;51.018;4.284;2023-05-07T04:59:53;11.55;;;6.07;;
18997;SDS011;9632;51.018;4.284;2023-05-07T05:02:19;9.68;;;6.13;;
18997;SDS011;9632;51.018;4.284;2023-05-07T05:04:44;10.27;;;5.85;;
18997;SDS011;9632;51.018;4.284;2023-05-07T05:07:10;9.10;;;5.82;;
18997;SDS011;9632;51.018;4.284;2023-05-07T05:09:36;9.80;;;5.68;;
18997;SDS011;9632;51.018;4.284;2023-05-07T05:12:01;9.50;;;6.07;;
18997;SDS011;9632;51.018;4.284;2023-05-07T05:14:27;10.23;;;6.60;;
18997;SDS011;9632;51.018;4.284;2023-05-07T05:16:54;8.65;;;5.97;;
18997;SDS011;9632;51.018;4.284;2023-05-07T05:19:20;10.07;;;6.57;;
18997;SDS011;9632;51.018;4.284;2023-05-07T05:21:45;10.85;;;6.70;;
18997;SDS011;9632;51.018;4.284;2023-05-07T05:24:11;8.38;;;6.05;;
18997;SDS011;9632;51.018;4.284;2023-05-07T05:26:37;7.93;;;5.97;;
18997;SDS011;9632;51.018;4.284;2023-05-07T05:29:02;10.77;;;7.00;;
18997;SDS011;9632;51.018;4.284;2023-05-07T05:31:29;10.77;;;6.72;;
18997;SDS011;9632;51.018;4.284;2023-05-07T05:33:54;9.93;;;6.22;;
18997;SDS011;9632;51.018;4.284;2023-05-07T05:36:20;11.15;;;6.50;;
18997;SDS011;9632;51.018;4.284;2023-05-07T05:38:46;9.23;;;6.43;;
18997;SDS011;9632;51.018;4.284;2023-05-07T05:41:11;10.43;;;6.93;;
18997;SDS011;9632;51.018;4.284;2023-05-07T05:43:37;10.07;;;6.80;;
18997;SDS011;9632;51.018;4.284;2023-05-07T05:46:03;11.35;;;7.10;;
18997;SDS011;9632;51.018;4.284;2023-05-07T05:48:29;10.30;;;6.63;;
18997;SDS011;9632;51.018;4.284;2023-05-07T05:50:55;12.10;;;7.60;;
18997;SDS011;9632;51.018;4.284;2023-05-07T05:53:20;10.75;;;6.35;;
18997;SDS011;9632;51.018;4.284;2023-05-07T05:55:46;11.68;;;8.00;;
18997;SDS011;9632;51.018;4.284;2023-05-07T05:58:12;11.48;;;7.65;;
18997;SDS011;9632;51.018;4.284;2023-05-07T06:00:38;11.25;;;6.72;;
18997;SDS011;9632;51.018;4.284;2023-05-07T06:03:03;11.32;;;6.93;;
18997;SDS011;9632;51.018;4.284;2023-05-07T06:05:29;10.23;;;7.20;;
18997;SDS011;9632;51.018;4.284;2023-05-07T06:07:55;12.38;;;7.28;;
18997;SDS011;9632;51.018;4.284;2023-05-07T06:10:21;22.20;;;7.50;;
18997;SDS011;9632;51.018;4.284;2023-05-07T06:12:46;12.88;;;7.38;;
18997;SDS011;9632;51.018;4.284;2023-05-07T06:15:12;13.18;;;7.63;;
18997;SDS011;9632;51.018;4.284;2023-05-07T06:17:38;12.65;;;7.50;;
18997;SDS011;9632;51.018;4.284;2023-05-07T06:20:03;10.25;;;7.07;;
18997;SDS011;9632;51.018;4.284;2023-05-07T06:22:30;9.30;;;6.63;;
18997;SDS011;9632;51.018;4.284;2023-05-07T06:24:55;11.15;;;7.13;;
18997;SDS011;9632;51.018;4.284;2023-05-07T06:27:21;12.07;;;6.88;;
18997;SDS011;9632;51.018;4.284;2023-05-07T06:29:47;9.13;;;6.43;;
18997;SDS011;9632;51.018;4.284;2023-05-07T06:32:13;10.23;;;7.38;;
18997;SDS011;9632;51.018;4.284;2023-05-07T06:34:39;11.88;;;7.40;;
18997;SDS011;9632;51.018;4.284;2023-05-07T06:37:06;10.68;;;7.38;;
18997;SDS011;9632;51.018;4.284;2023-05-07T06:39:32;16.58;;;8.98;;
18997;SDS011;9632;51.018;4.284;2023-05-07T06:41:58;14.00;;;8.25;;
18997;SDS011;9632;51.018;4.284;2023-05-07T06:44:25;13.90;;;8.02;;
18997;SDS011;9632;51.018;4.284;2023-05-07T06:46:50;11.15;;;7.05;;
18997;SDS011;9632;51.018;4.284;2023-05-07T06:49:17;13.48;;;8.15;;
18997;SDS011;9632;51.018;4.284;2023-05-07T06:51:43;12.75;;;8.40;;
18997;SDS011;9632;51.018;4.284;2023-05-07T06:54:08;11.98;;;7.38;;
18997;SDS011;9632;51.018;4.284;2023-05-07T06:56:35;12.02;;;7.40;;
18997;SDS011;9632;51.018;4.284;2023-05-07T06:59:01;11.70;;;7.32;;
18997;SDS011;9632;51.018;4.284;2023-05-07T07:01:27;12.50;;;7.28;;
18997;SDS011;9632;51.018;4.284;2023-05-07T07:03:54;12.25;;;7.40;;
18997;SDS011;9632;51.018;4.284;2023-05-07T07:06:19;11.82;;;7.10;;
18997;SDS011;9632;51.018;4.284;2023-05-07T07:08:47;16.45;;;7.38;;
18997;SDS011;9632;51.018;4.284;2023-05-07T07:11:12;10.35;;;6.03;;
18997;SDS011;9632;51.018;4.284;2023-05-07T07:13:38;11.05;;;6.18;;
18997;SDS011;9632;51.018;4.284;2023-05-07T07:16:05;13.45;;;7.18;;
18997;SDS011;9632;51.018;4.284;2023-05-07T07:18:31;13.52;;;7.63;;
18997;SDS011;9632;51.018;4.284;2023-05-07T07:20:56;11.95;;;6.35;;
18997;SDS011;9632;51.018;4.284;2023-05-07T07:23:23;10.80;;;6.38;;
18997;SDS011;9632;51.018;4.284;2023-05-07T07:25:49;11.27;;;5.57;;
18997;SDS011;9632;51.018;4.284;2023-05-07T07:28:14;12.32;;;5.90;;
18997;SDS011;9632;51.018;4.284;2023-05-07T07:30:40;13.98;;;5.40;;
18997;SDS011;9632;51.018;4.284;2023-05-07T07:33:06;13.23;;;5.88;;
18997;SDS011;9632;51.018;4.284;2023-05-07T07:35:32;10.95;;;5.15;;
18997;SDS011;9632;51.018;4.284;2023-05-07T07:37:58;9.30;;;5.07;;
18997;SDS011;9632;51.018;4.284;2023-05-07T07:40:23;14.23;;;5.45;;
18997;SDS011;9632;51.018;4.284;2023-05-07T07:42:50;10.80;;;5.13;;
18997;SDS011;9632;51.018;4.284;2023-05-07T07:45:18;10.00;;;4.72;;
18997;SDS011;9632;51.018;4.284;2023-05-07T07:47:44;11.95;;;4.90;;
18997;SDS011;9632;51.018;4.284;2023-05-07T07:50:10;12.63;;;5.20;;
18997;SDS011;9632;51.018;4.284;2023-05-07T07:52:36;9.88;;;4.55;;
18997;SDS011;9632;51.018;4.284;2023-05-07T07:55:02;9.85;;;4.43;;
18997;SDS011;9632;51.018;4.284;2023-05-07T07:57:28;10.68;;;4.53;;
18997;SDS011;9632;51.018;4.284;2023-05-07T07:59:54;9.20;;;4.75;;
18997;SDS011;9632;51.018;4.284;2023-05-07T08:02:20;11.02;;;4.90;;
18997;SDS011;9632;51.018;4.284;2023-05-07T08:04:46;11.40;;;4.53;;
18997;SDS011;9632;51.018;4.284;2023-05-07T08:07:11;9.27;;;4.40;;
18997;SDS011;9632;51.018;4.284;2023-05-07T08:09:38;12.52;;;4.57;;
18997;SDS011;9632;51.018;4.284;2023-05-07T08:12:07;10.85;;;4.35;;
18997;SDS011;9632;51.018;4.284;2023-05-07T08:14:34;9.90;;;4.88;;
18997;SDS011;9632;51.018;4.284;2023-05-07T08:17:01;10.20;;;4.20;;
18997;SDS011;9632;51.018;4.284;2023-05-07T08:19:27;9.75;;;4.57;;
18997;SDS011;9632;51.018;4.284;2023-05-07T08:21:52;11.65;;;4.43;;
18997;SDS011;9632;51.018;4.284;2023-05-07T08:24:18;10.02;;;4.22;;
18997;SDS011;9632;51.018;4.284;2023-05-07T08:26:44;10.38;;;4.53;;
18997;SDS011;9632;51.018;4.284;2023-05-07T08:29:10;14.18;;;4.50;;
18997;SDS011;9632;51.018;4.284;2023-05-07T08:31:35;12.02;;;4.45;;
18997;SDS011;9632;51.018;4.284;2023-05-07T08:34:01;10.05;;;3.60;;
18997;SDS011;9632;51.018;4.284;2023-05-07T08:36:28;9.07;;;3.75;;
18997;SDS011;9632;51.018;4.284;2023-05-07T08:38:54;9.23;;;3.60;;
18997;SDS011;9632;51.018;4.284;2023-05-07T08:41:20;11.25;;;4.22;;
18997;SDS011;9632;51.018;4.284;2023-05-07T08:43:49;11.05;;;4.13;;
18997;SDS011;9632;51.018;4.284;2023-05-07T08:46:19;10.00;;;3.60;;
18997;SDS011;9632;51.018;4.284;2023-05-07T08:48:49;8.27;;;3.58;;
18997;SDS011;9632;51.018;4.284;2023-05-07T08:51:16;11.07;;;3.60;;
18997;SDS011;9632;51.018;4.284;2023-05-07T08:53:44;7.90;;;3.40;;
18997;SDS011;9632;51.018;4.284;2023-05-07T08:56:11;8.80;;;4.05;;
18997;SDS011;9632;51.018;4.284;2023-05-07T08:58:37;7.88;;;3.10;;
18997;SDS011;9632;51.018;4.284;2023-05-07T09:01:04;8.50;;;3.60;;
18997;SDS011;9632;51.018;4.284;2023-05-07T09:03:33;9.75;;;3.42;;
18997;SDS011;9632;51.018;4.284;2023-05-07T09:05:58;8.48;;;3.03;;
18997;SDS011;9632;51.018;4.284;2023-05-07T09:08:25;10.43;;;3.17;;
18997;SDS011;9632;51.018;4.284;2023-05-07T09:10:52;8.57;;;2.95;;
18997;SDS011;9632;51.018;4.284;2023-05-07T09:13:17;8.70;;;3.33;;
18997;SDS011;9632;51.018;4.284;2023-05-07T09:15:43;9.25;;;3.40;;
18997;SDS011;9632;51.018;4.284;2023-05-07T09:18:09;7.38;;;2.70;;
18997;SDS011;9632;51.018;4.284;2023-05-07T09:20:37;6.63;;;3.00;;
18997;SDS011;9632;51.018;4.284;2023-05-07T09:23:04;6.05;;;2.78;;
18997;SDS011;9632;51.018;4.284;2023-05-07T09:25:32;6.82;;;2.55;;
18997;SDS011;9632;51.018;4.284;2023-05-07T09:27:59;7.43;;;3.03;;
18997;SDS011;9632;51.018;4.284;2023-05-07T09:30:32;10.75;;;4.10;;
18997;SDS011;9632;51.018;4.284;2023-05-07T09:32:58;7.63;;;3.47;;
18997;SDS011;9632;51.018;4.284;2023-05-07T09:35:26;10.13;;;3.70;;
18997;SDS011;9632;51.018;4.284;2023-05-07T09:37:53;8.50;;;3.28;;
18997;SDS011;9632;51.018;4.284;2023-05-07T09:40:24;9.73;;;3.60;;
18997;SDS011;9632;51.018;4.284;2023-05-07T09:42:52;8.20;;;3.28;;
18997;SDS011;9632;51.018;4.284;2023-05-07T09:45:22;8.23;;;3.80;;
18997;SDS011;9632;51.018;4.284;2023-05-07T09:47:53;8.88;;;3.63;;
18997;SDS011;9632;51.018;4.284;2023-05-07T09:50:30;10.13;;;4.40;;
18997;SDS011;9632;51.018;4.284;2023-05-07T09:53:01;9.93;;;4.03;;
18997;SDS011;9632;51.018;4.284;2023-05-07T09:55:28;6.60;;;3.45;;
18997;SDS011;9632;51.018;4.284;2023-05-07T09:57:55;8.52;;;3.80;;
18997;SDS011;9632;51.018;4.284;2023-05-07T10:00:22;8.63;;;3.35;;
18997;SDS011;9632;51.018;4.284;2023-05-07T10:02:49;8.35;;;3.40;;
18997;SDS011;9632;51.018;4.284;2023-05-07T10:05:19;6.25;;;3.00;;
18997;SDS011;9632;51.018;4.284;2023-05-07T10:07:46;7.40;;;2.88;;
18997;SDS011;9632;51.018;4.284;2023-05-07T10:10:13;5.93;;;3.05;;
18997;SDS011;9632;51.018;4.284;2023-05-07T10:12:40;8.02;;;3.22;;
18997;SDS011;9632;51.018;4.284;2023-05-07T10:15:07;6.80;;;3.13;;
18997;SDS011;9632;51.018;4.284;2023-05-07T10:17:37;7.93;;;3.45;;
18997;SDS011;9632;51.018;4.284;2023-05-07T10:20:07;6.70;;;2.90;;
18997;SDS011;9632;51.018;4.284;2023-05-07T10:22:43;7.03;;;2.90;;
18997;SDS011;9632;51.018;4.284;2023-05-07T10:25:18;8.93;;;3.15;;
18997;SDS011;9632;51.018;4.284;2023-05-07T10:27:48;7.43;;;2.95;;
18997;SDS011;9632;51.018;4.284;2023-05-07T10:30:24;6.20;;;2.50;;
18997;SDS011;9632;51.018;4.284;2023-05-07T10:33:04;9.15;;;2.92;;
18997;SDS011;9632;51.018;4.284;2023-05-07T10:35:36;6.15;;;2.80;;
18997;SDS011;9632;51.018;4.284;2023-05-07T10:38:05;6.88;;;2.72;;
18997;SDS011;9632;51.018;4.284;2023-05-07T10:40:32;10.52;;;3.15;;
18997;SDS011;9632;51.018;4.284;2023-05-07T10:42:58;4.20;;;2.38;;
18997;SDS011;9632;51.018;4.284;2023-05-07T10:45:25;8.43;;;3.75;;
18997;SDS011;9632;51.018;4.284;2023-05-07T10:50:34;6.32;;;2.75;;
18997;SDS011;9632;51.018;4.284;2023-05-07T10:53:33;5.15;;;2.60;;
18997;SDS011;9632;51.018;4.284;2023-05-07T10:58:43;7.57;;;2.40;;
18997;SDS011;9632;51.018;4.284;2023-05-07T11:01:09;6.45;;;2.70;;
18997;SDS011;9632;51.018;4.284;2023-05-07T11:03:37;6.85;;;2.63;;
18997;SDS011;9632;51.018;4.284;2023-05-07T11:06:39;9.77;;;2.70;;
18997;SDS011;9632;51.018;4.284;2023-05-07T11:09:05;5.80;;;2.50;;
18997;SDS011;9632;51.018;4.284;2023-05-07T11:11:47;7.38;;;2.40;;
18997;SDS011;9632;51.018;4.284;2023-05-07T11:17:06;5.35;;;1.88;;
18997;SDS011;9632;51.018;4.284;2023-05-07T11:20:05;7.80;;;2.40;;
18997;SDS011;9632;51.018;4.284;2023-05-07T11:24:56;5.65;;;2.20;;
18997;SDS011;9632;51.018;4.284;2023-05-07T11:27:25;5.82;;;2.20;;
18997;SDS011;9632;51.018;4.284;2023-05-07T11:29:51;5.57;;;1.92;;
18997;SDS011;9632;51.018;4.284;2023-05-07T11:32:26;7.63;;;2.05;;
18997;SDS011;9632;51.018;4.284;2023-05-07T11:34:57;10.07;;;2.13;;
18997;SDS011;9632;51.018;4.284;2023-05-07T11:37:25;5.00;;;2.30;;
18997;SDS011;9632;51.018;4.284;2023-05-07T11:40:05;6.45;;;2.85;;
18997;SDS011;9632;51.018;4.284;2023-05-07T11:42:34;3.97;;;1.92;;
18997;SDS011;9632;51.018;4.284;2023-05-07T11:45:02;6.32;;;3.28;;
18997;SDS011;9632;51.018;4.284;2023-05-07T11:47:32;6.70;;;2.90;;
18997;SDS011;9632;51.018;4.284;2023-05-07T11:50:03;8.98;;;3.38;;
18997;SDS011;9632;51.018;4.284;2023-05-07T11:52:30;11.73;;;4.55;;
18997;SDS011;9632;51.018;4.284;2023-05-07T11:54:57;8.32;;;3.20;;
18997;SDS011;9632;51.018;4.284;2023-05-07T11:57:24;6.35;;;2.53;;
18997;SDS011;9632;51.018;4.284;2023-05-07T11:59:54;5.05;;;2.40;;
18997;SDS011;9632;51.018;4.284;2023-05-07T12:02:21;5.28;;;2.17;;
18997;SDS011;9632;51.018;4.284;2023-05-07T12:04:46;5.25;;;2.40;;
18997;SDS011;9632;51.018;4.284;2023-05-07T12:07:13;9.48;;;2.60;;
18997;SDS011;9632;51.018;4.284;2023-05-07T12:09:40;7.97;;;2.88;;
18997;SDS011;9632;51.018;4.284;2023-05-07T12:12:06;5.50;;;2.63;;
18997;SDS011;9632;51.018;4.284;2023-05-07T12:14:32;7.18;;;2.90;;
18997;SDS011;9632;51.018;4.284;2023-05-07T12:17:00;5.80;;;2.30;;
18997;SDS011;9632;51.018;4.284;2023-05-07T12:19:30;4.75;;;2.30;;
18997;SDS011;9632;51.018;4.284;2023-05-07T12:21:56;5.95;;;2.78;;
18997;SDS011;9632;51.018;4.284;2023-05-07T12:24:22;4.75;;;2.33;;
18997;SDS011;9632;51.018;4.284;2023-05-07T12:26:48;6.93;;;2.53;;
18997;SDS011;9632;51.018;4.284;2023-05-07T12:29:14;4.43;;;2.45;;
18997;SDS011;9632;51.018;4.284;2023-05-07T12:31:40;4.75;;;2.58;;
18997;SDS011;9632;51.018;4.284;2023-05-07T12:34:06;8.45;;;3.03;;
18997;SDS011;9632;51.018;4.284;2023-05-07T12:36:39;7.05;;;2.90;;
18997;SDS011;9632;51.018;4.284;2023-05-07T12:39:09;6.85;;;2.70;;
18997;SDS011;9632;51.018;4.284;2023-05-07T12:44:24;4.57;;;1.77;;
18997;SDS011;9632;51.018;4.284;2023-05-07T12:47:02;5.28;;;2.08;;
18997;SDS011;9632;51.018;4.284;2023-05-07T12:49:28;5.25;;;2.10;;
18997;SDS011;9632;51.018;4.284;2023-05-07T12:51:53;5.40;;;2.15;;
18997;SDS011;9632;51.018;4.284;2023-05-07T12:54:29;3.45;;;1.73;;
18997;SDS011;9632;51.018;4.284;2023-05-07T12:57:03;4.65;;;1.83;;
18997;SDS011;9632;51.018;4.284;2023-05-07T12:59:36;3.42;;;1.60;;
18997;SDS011;9632;51.018;4.284;2023-05-07T13:02:05;6.65;;;2.17;;
18997;SDS011;9632;51.018;4.284;2023-05-07T13:04:31;5.05;;;1.73;;
18997;SDS011;9632;51.018;4.284;2023-05-07T13:06:57;4.70;;;1.90;;
18997;SDS011;9632;51.018;4.284;2023-05-07T13:09:23;7.80;;;2.15;;
18997;SDS011;9632;51.018;4.284;2023-05-07T13:11:49;3.75;;;1.63;;
18997;SDS011;9632;51.018;4.284;2023-05-07T13:14:15;3.85;;;1.60;;
18997;SDS011;9632;51.018;4.284;2023-05-07T13:16:41;4.68;;;2.03;;
18997;SDS011;9632;51.018;4.284;2023-05-07T13:19:06;5.13;;;2.58;;
18997;SDS011;9632;51.018;4.284;2023-05-07T13:21:32;4.25;;;1.90;;
18997;SDS011;9632;51.018;4.284;2023-05-07T13:23:58;2.95;;;1.60;;
18997;SDS011;9632;51.018;4.284;2023-05-07T13:26:24;3.30;;;1.77;;
18997;SDS011;9632;51.018;4.284;2023-05-07T13:28:50;2.25;;;1.50;;
18997;SDS011;9632;51.018;4.284;2023-05-07T13:31:16;2.67;;;1.42;;
18997;SDS011;9632;51.018;4.284;2023-05-07T13:33:42;5.75;;;2.40;;
18997;SDS011;9632;51.018;4.284;2023-05-07T13:36:08;3.05;;;1.95;;
18997;SDS011;9632;51.018;4.284;2023-05-07T13:38:34;4.40;;;2.42;;
18997;SDS011;9632;51.018;4.284;2023-05-07T13:41:00;3.65;;;1.90;;
18997;SDS011;9632;51.018;4.284;2023-05-07T13:43:26;3.92;;;2.05;;
18997;SDS011;9632;51.018;4.284;2023-05-07T13:45:51;5.72;;;2.60;;
18997;SDS011;9632;51.018;4.284;2023-05-07T13:48:17;5.70;;;2.60;;
18997;SDS011;9632;51.018;4.284;2023-05-07T13:50:43;3.80;;;2.25;;
18997;SDS011;9632;51.018;4.284;2023-05-07T13:53:08;3.92;;;2.20;;
18997;SDS011;9632;51.018;4.284;2023-05-07T13:55:34;3.95;;;2.20;;
18997;SDS011;9632;51.018;4.284;2023-05-07T13:58:00;4.35;;;2.20;;
18997;SDS011;9632;51.018;4.284;2023-05-07T14:00:27;5.03;;;2.92;;
18997;SDS011;9632;51.018;4.284;2023-05-07T14:02:54;6.15;;;3.10;;
18997;SDS011;9632;51.018;4.284;2023-05-07T14:05:20;4.40;;;3.00;;
18997;SDS011;9632;51.018;4.284;2023-05-07T14:07:48;2.88;;;2.30;;
18997;SDS011;9632;51.018;4.284;2023-05-07T14:10:16;4.50;;;2.38;;
18997;SDS011;9632;51.018;4.284;2023-05-07T14:12:43;5.47;;;3.58;;
18997;SDS011;9632;51.018;4.284;2023-05-07T14:15:10;4.82;;;3.45;;
18997;SDS011;9632;51.018;4.284;2023-05-07T14:17:36;4.95;;;3.70;;
18997;SDS011;9632;51.018;4.284;2023-05-07T14:20:02;3.25;;;2.95;;
18997;SDS011;9632;51.018;4.284;2023-05-07T14:22:28;3.70;;;3.30;;
18997;SDS011;9632;51.018;4.284;2023-05-07T14:24:54;5.53;;;3.40;;
18997;SDS011;9632;51.018;4.284;2023-05-07T14:27:20;4.40;;;3.30;;
18997;SDS011;9632;51.018;4.284;2023-05-07T14:29:45;4.28;;;2.70;;
18997;SDS011;9632;51.018;4.284;2023-05-07T14:32:15;2.92;;;2.03;;
18997;SDS011;9632;51.018;4.284;2023-05-07T14:34:42;3.00;;;2.13;;
18997;SDS011;9632;51.018;4.284;2023-05-07T14:37:08;2.72;;;1.90;;
18997;SDS011;9632;51.018;4.284;2023-05-07T14:39:34;3.97;;;1.90;;
18997;SDS011;9632;51.018;4.284;2023-05-07T14:41:59;2.78;;;1.80;;
18997;SDS011;9632;51.018;4.284;2023-05-07T14:44:25;4.40;;;2.10;;
18997;SDS011;9632;51.018;4.284;2023-05-07T14:46:51;3.33;;;2.15;;
18997;SDS011;9632;51.018;4.284;2023-05-07T14:49:16;3.90;;;1.80;;
18997;SDS011;9632;51.018;4.284;2023-05-07T14:51:45;4.15;;;1.85;;
18997;SDS011;9632;51.018;4.284;2023-05-07T14:54:12;3.08;;;1.75;;
18997;SDS011;9632;51.018;4.284;2023-05-07T14:56:38;2.92;;;1.70;;
18997;SDS011;9632;51.018;4.284;2023-05-07T14:59:05;3.38;;;1.55;;
18997;SDS011;9632;51.018;4.284;2023-05-07T15:01:30;4.53;;;1.67;;
18997;SDS011;9632;51.018;4.284;2023-05-07T15:03:56;3.05;;;2.20;;
18997;SDS011;9632;51.018;4.284;2023-05-07T15:06:22;5.40;;;2.88;;
18997;SDS011;9632;51.018;4.284;2023-05-07T15:08:48;4.65;;;2.90;;
18997;SDS011;9632;51.018;4.284;2023-05-07T15:11:14;3.15;;;2.08;;